createdAt,value
2022-12-24T00:00:01.367Z,0.00
2022-12-24T00:10:01.277Z,0.00
2022-12-24T00:20:01.988Z,0.00
2022-12-24T00:30:01.002Z,0.00
2022-12-24T00:40:01.919Z,0.00
2022-12-24T00:50:00.169Z,0.00
2022-12-24T01:00:01.381Z,1.25
2022-12-24T01:10:00.843Z,0.00
2022-12-24T01:20:01.630Z,0.00
2022-12-24T01:30:01.148Z,0.00
2022-12-24T01:40:02.353Z,0.00
2022-12-24T01:50:01.279Z,0.00
2022-12-24T02:00:01.302Z,0.00
2022-12-24T02:10:02.688Z,0.00
2022-12-24T02:20:02.307Z,0.00
2022-12-24T02:30:02.712Z,0.00
2022-12-24T02:40:01.305Z,0.00
2022-12-24T02:50:02.407Z,0.00
2022-12-24T03:00:01.285Z,0.00
2022-12-24T03:10:00.915Z,0.00
2022-12-24T03:20:01.336Z,0.00
2022-12-24T03:30:01.185Z,0.00
2022-12-24T03:40:00.187Z,0.00
2022-12-24T03:50:01.301Z,0.00
2022-12-24T04:00:01.003Z,0.00
2022-12-24T04:10:00.999Z,0.00
2022-12-24T04:20:03.359Z,0.00
2022-12-24T04:30:01.039Z,0.00
2022-12-24T04:40:01.311Z,0.00
2022-12-24T04:50:00.145Z,0.00
2022-12-24T05:00:01.467Z,0.00
2022-12-24T05:10:01.038Z,0.00
2022-12-24T05:20:00.200Z,0.00
2022-12-24T05:30:01.220Z,0.00
2022-12-24T05:40:01.923Z,0.00
2022-12-24T05:50:01.651Z,0.00
2022-12-24T06:00:01.132Z,0.00
2022-12-24T06:10:00.178Z,0.00
2022-12-24T06:30:02.226Z,0.00
2022-12-24T06:40:01.410Z,0.11
2022-12-24T06:50:02.193Z,1.47
2022-12-24T07:00:01.026Z,5.09
2022-12-24T07:10:01.095Z,11.55
2022-12-24T07:20:01.101Z,11.67
2022-12-24T07:30:01.334Z,38.33
2022-12-24T07:40:01.370Z,111.67
2022-12-24T07:50:01.137Z,114.17
2022-12-24T08:00:00.829Z,181.67
2022-12-24T08:10:01.072Z,118.33
2022-12-24T08:20:01.024Z,330.00
2022-12-24T08:30:00.153Z,228.33
2022-12-24T08:40:00.186Z,168.33
2022-12-24T08:50:01.000Z,235.00
2022-12-24T09:10:01.059Z,276.67
2022-12-24T09:20:01.058Z,313.33
2022-12-24T09:30:01.413Z,448.33
2022-12-24T09:40:01.095Z,1071.67
2022-12-24T09:50:01.373Z,760.83
2022-12-24T10:00:01.135Z,450.00
2022-12-24T10:10:01.355Z,356.67
2022-12-24T10:20:01.677Z,598.33
2022-12-24T10:30:02.868Z,1443.75
2022-12-24T10:40:03.187Z,1209.17
2022-12-24T10:50:00.157Z,1551.67
2022-12-24T11:00:01.290Z,848.33
2022-12-24T11:10:03.476Z,571.67
2022-12-24T11:20:00.201Z,1422.92
2022-12-24T11:30:03.055Z,2830.83
2022-12-24T11:40:00.187Z,1198.33
2022-12-24T11:50:17.499Z,875.00
2022-12-24T12:00:00.193Z,1493.75
2022-12-24T12:10:00.143Z,1296.67
2022-12-24T12:20:01.597Z,793.33
2022-12-24T12:30:01.001Z,1938.75
2022-12-24T12:40:01.094Z,1516.67
2022-12-24T12:50:01.937Z,1460.83
2022-12-24T13:00:01.344Z,755.83
2022-12-24T13:10:02.003Z,391.67
2022-12-24T13:20:03.045Z,1335.00
2022-12-24T13:30:07.106Z,495.00
2022-12-24T13:40:01.359Z,700.83
2022-12-24T13:50:01.097Z,1041.67
2022-12-24T14:00:02.226Z,1125.00
2022-12-24T14:10:01.214Z,956.67
2022-12-24T14:20:02.640Z,498.33
2022-12-24T14:30:01.090Z,597.50
2022-12-24T14:40:01.063Z,221.67
2022-12-24T14:50:01.135Z,145.00
2022-12-24T15:00:02.497Z,165.00
2022-12-24T15:10:01.444Z,68.75
2022-12-24T15:20:01.534Z,18.75
2022-12-24T15:30:00.150Z,3.28
2022-12-24T15:40:01.237Z,0.68
2022-12-24T15:50:01.288Z,0.11
2022-12-24T16:00:01.267Z,0.00
2022-12-24T16:10:01.271Z,0.00
2022-12-24T16:20:01.061Z,0.00
2022-12-24T16:30:00.157Z,0.00
2022-12-24T16:40:01.294Z,0.00
2022-12-24T16:50:01.079Z,0.00
2022-12-24T17:00:01.036Z,0.00
2022-12-24T17:10:01.432Z,0.00
2022-12-24T17:20:01.033Z,0.00
2022-12-24T17:30:01.223Z,0.00
2022-12-24T17:40:02.023Z,0.00
2022-12-24T17:50:01.253Z,0.00
2022-12-24T18:00:00.980Z,0.00
2022-12-24T18:10:01.012Z,0.00
2022-12-24T18:20:01.657Z,0.00
2022-12-24T18:30:01.096Z,0.00
2022-12-24T18:40:01.248Z,0.00
2022-12-24T18:50:01.020Z,0.00
2022-12-24T19:00:00.987Z,0.00
2022-12-24T19:10:01.505Z,0.00
2022-12-24T19:20:00.204Z,0.00
2022-12-24T19:30:01.214Z,0.00
2022-12-24T19:40:01.260Z,0.00
2022-12-24T19:50:01.029Z,0.00
2022-12-24T20:00:01.230Z,0.00
2022-12-24T20:10:00.178Z,0.00
2022-12-24T20:20:02.842Z,0.00
2022-12-24T20:30:00.977Z,0.00
2022-12-24T20:40:00.174Z,0.00
2022-12-24T20:50:01.486Z,0.00
2022-12-24T21:00:00.196Z,0.00
2022-12-24T21:10:00.176Z,0.00
2022-12-24T21:20:01.047Z,0.00
2022-12-24T21:30:01.237Z,0.00
2022-12-24T21:40:00.171Z,0.00
2022-12-24T21:50:01.122Z,0.00
2022-12-24T22:00:02.326Z,0.00
2022-12-24T22:10:00.983Z,0.00
2022-12-24T22:20:01.084Z,0.00
2022-12-24T22:30:01.034Z,0.00
2022-12-24T22:40:01.072Z,0.00
2022-12-24T22:50:01.270Z,0.00
2022-12-24T23:00:01.255Z,0.00
2022-12-24T23:10:00.153Z,0.00
2022-12-24T23:20:01.644Z,0.00
2022-12-24T23:30:01.055Z,0.00
2022-12-24T23:40:01.350Z,0.00
2022-12-24T23:50:01.064Z,0.00
